Station Historical Data
Daily Summary for August 12, 2017 Units:  Metric    English   Both
« Previous Day
Next Day »
Daily Weekly Monthly Yearly Custom
  High: Low: Average:
Temperature: 25.3 °C 17.7 °C 20.8 °C
Dew Point: 19.3 °C 15.1 °C 17.7 °C
Humidity: 92% 65% 83%
Wind Speed: 27.4km/h 0km/h 5.5km/h
Wind Gust: 33.8km/h - -
Wind- - SW
Pressure: 1012.8 hPa 1010.4 hPa -
Precipitation: 0 mm    
Historical Graphs
 
 
Tabular Data for August 12, 2017
Time Temperature Dew Point Pressure Wind Wind Speed Wind Gust Humidity Rainfall Rate (Hourly)
00:04 18.9 °C 16 °C 1011.4 hPa SSW 3.2 km/h 9.7 km/h 83% 0 mm
00:09 19.1 °C 16.2 °C 1011.4 hPa SSW 4.8 km/h 11.3 km/h 83% 0 mm
00:14 19.2 °C 16.3 °C 1011.1 hPa SW 6.4 km/h 11.3 km/h 83% 0 mm
00:19 19.3 °C 16.2 °C 1011.1 hPa South 3.2 km/h 8 km/h 82% 0 mm
00:24 19.3 °C 16.2 °C 1011.1 hPa Calm   6.4 km/h 82% 0 mm
00:29 19.4 °C 16.2 °C 1011.1 hPa Calm   4.8 km/h 82% 0 mm
00:34 19.4 °C 16.2 °C 1011.4 hPa Calm   1.6 km/h 82% 0 mm
00:39 19.4 °C 16.2 °C 1011.4 hPa Calm   6.4 km/h 82% 0 mm
00:44 19.4 °C 16.2 °C 1011.4 hPa SSW 1.6 km/h 6.4 km/h 82% 0 mm
00:49 19.3 °C 16.2 °C 1011.4 hPa SSW 1.6 km/h 6.4 km/h 82% 0 mm
00:54 19.3 °C 16.4 °C 1011.1 hPa SSW 1.6 km/h 6.4 km/h 83% 0 mm
00:59 19.4 °C 16.4 °C 1011.1 hPa SSW 4.8 km/h 9.7 km/h 83% 0 mm
01:04 19.4 °C 16.5 °C 1011.1 hPa SSW 1.6 km/h 11.3 km/h 83% 0 mm
01:09 19.6 °C 16.4 °C 1011.1 hPa SW 3.2 km/h 8 km/h 82% 0 mm
01:14 19.6 °C 16.7 °C 1011.1 hPa SSW 1.6 km/h 8 km/h 83% 0 mm
01:19 19.6 °C 16.7 °C 1011.4 hPa SSW 1.6 km/h 6.4 km/h 83% 0 mm
01:24 19.7 °C 16.8 °C 1011.4 hPa SW 1.6 km/h 4.8 km/h 83% 0 mm
01:29 19.8 °C 16.6 °C 1011.4 hPa Calm     82% 0 mm
01:34 19.8 °C 16.8 °C 1011.4 hPa Calm     83% 0.25 mm
01:39 19.8 °C 17 °C 1011.7 hPa Calm     84% 1.27 mm
01:44 19.6 °C 16.9 °C 1011.7 hPa Calm   9.7 km/h 85% 3.05 mm
01:49 19.4 °C 17 °C 1011.7 hPa Calm   9.7 km/h 86% 4.06 mm
01:54 19.3 °C 17.1 °C 1011.7 hPa SE 1.6 km/h 6.4 km/h 87% 5.08 mm
01:59 19.1 °C 17.1 °C 1011.4 hPa SSE 3.2 km/h 4.8 km/h 88% 5.33 mm
02:04 19.1 °C 17 °C 1011.4 hPa SSE 1.6 km/h 4.8 km/h 88% 5.33 mm
02:09 19.1 °C 17.2 °C 1011.4 hPa SSE 1.6 km/h 4.8 km/h 89% 5.33 mm
02:14 19 °C 17.2 °C 1011.4 hPa Calm   1.6 km/h 89% 5.33 mm
02:19 19 °C 17.2 °C 1011.4 hPa Calm   1.6 km/h 89% 5.33 mm
02:24 19 °C 17.3 °C 1011.1 hPa Calm     90% 5.33 mm
02:29 19 °C 17.3 °C 1011.1 hPa Calm     90% 5.33 mm
02:34 18.9 °C 17.3 °C 1011.1 hPa Calm     90% 5.08 mm
02:39 18.9 °C 17.3 °C 1011.1 hPa Calm   4.8 km/h 90% 4.06 mm
02:44 18.9 °C 17.3 °C 1011.1 hPa Calm   4.8 km/h 90% 1.78 mm
02:49 18.8 °C 17.2 °C 1010.7 hPa South 4.8 km/h 4.8 km/h 90% 1.27 mm
02:54 18.8 °C 17.1 °C 1010.7 hPa South 1.6 km/h 4.8 km/h 90% 0.25 mm
02:59 18.7 °C 17.1 °C 1010.7 hPa SSE 1.6 km/h 6.4 km/h 90% 0 mm
03:04 18.6 °C 16.9 °C 1010.7 hPa Calm   6.4 km/h 90% 0 mm
03:09 18.6 °C 16.9 °C 1010.7 hPa Calm     90% 0 mm
03:14 18.5 °C 16.8 °C 1010.7 hPa Calm   3.2 km/h 90% 0 mm
03:19 18.4 °C 16.8 °C 1010.7 hPa Calm   3.2 km/h 90% 0 mm
03:24 18.4 °C 16.8 °C 1010.7 hPa Calm   3.2 km/h 90% 0 mm
03:29 18.4 °C 16.9 °C 1010.7 hPa Calm   4.8 km/h 91% 0 mm
03:34 18.3 °C 16.8 °C 1010.7 hPa SSW 3.2 km/h 6.4 km/h 91% 0 mm
03:39 18.3 °C 16.8 °C 1010.7 hPa SSW 3.2 km/h 8 km/h 91% 0 mm
03:44 18.3 °C 16.8 °C 1010.7 hPa SSW 3.2 km/h 8 km/h 91% 0 mm
03:49 18.3 °C 16.8 °C 1010.7 hPa South 4.8 km/h 8 km/h 91% 0 mm
03:54 18.3 °C 16.8 °C 1010.7 hPa SSW 3.2 km/h 8 km/h 91% 0 mm
03:59 18.3 °C 16.8 °C 1010.7 hPa SSW 3.2 km/h 8 km/h 91% 0 mm
04:04 18.3 °C 16.8 °C 1010.7 hPa SSW 4.8 km/h 11.3 km/h 91% 0 mm
04:09 18.3 °C 16.8 °C 1010.7 hPa South 4.8 km/h 11.3 km/h 91% 0 mm
04:14 18.3 °C 16.8 °C 1010.7 hPa SSW 11.3 km/h 11.3 km/h 91% 0 mm
04:19 18.4 °C 16.9 °C 1010.4 hPa SSW 4.8 km/h 11.3 km/h 91% 0 mm
04:24 18.4 °C 16.7 °C 1010.4 hPa SSW 4.8 km/h 11.3 km/h 90% 0 mm
04:29 18.4 °C 16.7 °C 1010.4 hPa SSW 4.8 km/h 11.3 km/h 90% 0 mm
04:34 18.4 °C 16.8 °C 1010.4 hPa SSW 3.2 km/h 11.3 km/h 90% 0 mm
04:39 18.4 °C 16.8 °C 1010.4 hPa South 1.6 km/h 6.4 km/h 90% 0 mm
04:44 18.4 °C 16.7 °C 1010.4 hPa Calm   8 km/h 90% 0 mm
04:49 18.4 °C 16.7 °C 1010.4 hPa SSW 1.6 km/h 4.8 km/h 90% 0 mm
04:54 18.4 °C 16.7 °C 1010.4 hPa SSW 1.6 km/h 6.4 km/h 90% 0 mm
04:59 18.4 °C 16.8 °C 1010.4 hPa SSW 1.6 km/h 6.4 km/h 90% 0 mm
05:04 18.6 °C 16.9 °C 1010.4 hPa SSW 1.6 km/h 9.7 km/h 90% 0 mm
05:09 18.6 °C 16.9 °C 1010.4 hPa SSW 1.6 km/h 9.7 km/h 90% 0 mm
05:14 18.7 °C 17 °C 1010.4 hPa SSW 1.6 km/h 6.4 km/h 90% 0 mm
05:19 18.7 °C 17.1 °C 1010.4 hPa SSW 1.6 km/h 6.4 km/h 90% 0 mm
05:24 18.8 °C 17.1 °C 1010.4 hPa SSW 3.2 km/h 6.4 km/h 90% 0 mm
05:29 18.8 °C 17.1 °C 1010.7 hPa SSW 1.6 km/h 6.4 km/h 90% 0 mm
05:34 18.9 °C 17.2 °C 1010.4 hPa Calm   8 km/h 90% 0 mm
05:39 18.9 °C 17.3 °C 1010.4 hPa SW 1.6 km/h 6.4 km/h 90% 0 mm
05:44 18.9 °C 17.3 °C 1010.4 hPa Calm   3.2 km/h 90% 0 mm
05:49 18.9 °C 17.3 °C 1010.4 hPa SW 6.4 km/h 6.4 km/h 90% 0 mm
05:54 18.9 °C 17.3 °C 1010.4 hPa SSW 3.2 km/h 8 km/h 90% 0 mm
05:59 18.9 °C 17.3 °C 1010.4 hPa SSW 1.6 km/h 8 km/h 90% 0 mm
06:04 18.9 °C 17.2 °C 1010.4 hPa SSW 1.6 km/h 6.4 km/h 90% 0 mm
06:09 18.8 °C 17 °C 1010.4 hPa Calm   6.4 km/h 89% 0 mm
06:14 18.8 °C 17.2 °C 1010.7 hPa Calm     90% 0 mm
06:19 18.8 °C 17.2 °C 1010.7 hPa Calm     90% 0 mm
06:24 18.9 °C 17.2 °C 1010.7 hPa Calm     90% 0 mm
06:29 18.9 °C 17.3 °C 1010.7 hPa SSW 1.6 km/h 9.7 km/h 90% 0 mm
06:34 19 °C 17.2 °C 1010.7 hPa SSW 3.2 km/h 9.7 km/h 89% 0 mm
06:39 19.1 °C 17.2 °C 1010.7 hPa SSW 3.2 km/h 11.3 km/h 89% 0 mm
06:44 19.1 °C 17.3 °C 1010.7 hPa SW 4.8 km/h 9.7 km/h 89% 0 mm
06:49 19.2 °C 17.3 °C 1010.7 hPa SW 1.6 km/h 9.7 km/h 89% 0 mm
06:54 19.2 °C 17.4 °C 1010.7 hPa SSW 6.4 km/h 6.4 km/h 89% 0 mm
06:59 19.3 °C 17.5 °C 1010.7 hPa SSW 6.4 km/h 9.7 km/h 89% 0 mm
07:04 19.4 °C 17.6 °C 1010.7 hPa SSW 3.2 km/h 11.3 km/h 89% 0 mm
07:09 19.5 °C 17.6 °C 1010.7 hPa SSW 4.8 km/h 11.3 km/h 89% 0 mm
07:14 19.6 °C 17.5 °C 1010.7 hPa SSW 6.4 km/h 12.9 km/h 88% 0 mm
07:19 19.6 °C 17.6 °C 1010.7 hPa SSW 4.8 km/h 12.9 km/h 88% 0 mm
07:24 19.8 °C 17.7 °C 1010.7 hPa SW 4.8 km/h 11.3 km/h 88% 0 mm
07:29 19.9 °C 17.8 °C 1010.7 hPa SW 1.6 km/h 9.7 km/h 88% 0 mm
07:34 19.9 °C 17.9 °C 1010.7 hPa SW 3.2 km/h 9.7 km/h 88% 0 mm
07:39 19.9 °C 17.9 °C 1010.7 hPa SW 4.8 km/h 12.9 km/h 88% 0 mm
07:44 20.1 °C 17.8 °C 1010.7 hPa SSW 4.8 km/h 12.9 km/h 87% 0 mm
07:49 20.1 °C 17.9 °C 1010.7 hPa South 8 km/h 11.3 km/h 87% 0 mm
07:54 20.3 °C 18.1 °C 1010.7 hPa SW 6.4 km/h 12.9 km/h 87% 0 mm
07:59 20.5 °C 18.3 °C 1010.7 hPa SW 4.8 km/h 11.3 km/h 87% 0 mm
08:04 20.7 °C 18.2 °C 1010.7 hPa WSW 14.5 km/h 14.5 km/h 86% 0 mm
08:09 20.7 °C 18.1 °C 1010.7 hPa SW 6.4 km/h 17.7 km/h 85% 0 mm
08:14 20.8 °C 18.2 °C 1010.7 hPa SW 6.4 km/h 17.7 km/h 85% 0 mm
08:19 20.9 °C 18.3 °C 1010.7 hPa SW 6.4 km/h 12.9 km/h 85% 0 mm
08:24 20.9 °C 18.3 °C 1010.7 hPa SSW 6.4 km/h 14.5 km/h 85% 0 mm
08:29 21.2 °C 18.6 °C 1010.7 hPa SSW 6.4 km/h 14.5 km/h 85% 0 mm
08:34 21.2 °C 18.3 °C 1010.7 hPa SW 6.4 km/h 16.1 km/h 84% 0 mm
08:39 21.2 °C 18.4 °C 1010.7 hPa WSW 12.9 km/h 14.5 km/h 84% 0 mm
08:44 21.1 °C 18.3 °C 1010.7 hPa South 8 km/h 16.1 km/h 84% 0 mm
08:49 21.3 °C 18.4 °C 1010.7 hPa WSW 6.4 km/h 12.9 km/h 84% 0 mm
08:54 21.3 °C 18.3 °C 1010.7 hPa SSW 3.2 km/h 11.3 km/h 83% 0 mm
08:59 21.3 °C 18.3 °C 1010.7 hPa SSW 4.8 km/h 14.5 km/h 83% 0 mm
09:04 21.6 °C 18.6 °C 1010.7 hPa SW 3.2 km/h 11.3 km/h 83% 0 mm
09:09 21.4 °C 18.2 °C 1010.7 hPa SW 11.3 km/h 14.5 km/h 82% 0 mm
09:14 21.3 °C 18.3 °C 1010.7 hPa SW 6.4 km/h 14.5 km/h 83% 0 mm
09:19 21.3 °C 18.3 °C 1010.7 hPa SW 6.4 km/h 14.5 km/h 83% 0 mm
09:24 21.3 °C 18.3 °C 1010.7 hPa SSW 6.4 km/h 14.5 km/h 83% 0 mm
09:29 21.6 °C 18.6 °C 1010.7 hPa SSW 6.4 km/h 16.1 km/h 83% 0 mm
09:34 21.7 °C 18.7 °C 1010.7 hPa SW 8 km/h 17.7 km/h 83% 0 mm
09:39 21.9 °C 18.9 °C 1010.7 hPa SSW 4.8 km/h 16.1 km/h 83% 0 mm
09:44 22.4 °C 19.2 °C 1010.7 hPa SW 6.4 km/h 16.1 km/h 82% 0 mm
09:49 22.8 °C 19.2 °C 1010.4 hPa South 9.7 km/h 17.7 km/h 80% 0 mm
09:54 22.6 °C 19 °C 1010.4 hPa WSW 4.8 km/h 14.5 km/h 80% 0 mm
09:59 22.4 °C 18.9 °C 1010.7 hPa SW 11.3 km/h 16.1 km/h 81% 0 mm
10:04 22.3 °C 19.1 °C 1010.7 hPa SSW 6.4 km/h 24.1 km/h 82% 0 mm
10:09 22.4 °C 19.2 °C 1010.7 hPa SW 3.2 km/h 16.1 km/h 82% 0 mm
10:14 22.7 °C 19.3 °C 1010.7 hPa WSW 11.3 km/h 22.5 km/h 81% 0 mm
10:19 22.3 °C 18.7 °C 1010.7 hPa WSW 12.9 km/h 22.5 km/h 80% 0 mm
10:24 21.2 °C 17.9 °C 1011.1 hPa West 9.7 km/h 22.5 km/h 82% 0 mm
10:29 20.7 °C 17.9 °C 1011.1 hPa WNW 8 km/h 20.9 km/h 84% 0 mm
10:34 20.5 °C 17.9 °C 1011.1 hPa WNW 11.3 km/h 16.1 km/h 85% 0 mm
10:39 20.4 °C 18 °C 1011.1 hPa NNW 4.8 km/h 11.3 km/h 86% 0.25 mm
10:44 20.2 °C 18 °C 1011.1 hPa WNW 3.2 km/h 11.3 km/h 87% 0.25 mm
10:49 20.4 °C 18.3 °C 1011.1 hPa WNW 6.4 km/h 11.3 km/h 88% 0.25 mm
10:54 21.1 °C 19 °C 1010.7 hPa North 11.3 km/h 12.9 km/h 88% 0.25 mm
10:59 21.2 °C 19.1 °C 1011.1 hPa West 4.8 km/h 11.3 km/h 88% 0.25 mm
11:04 21.4 °C 19.2 °C 1011.1 hPa WNW 4.8 km/h 11.3 km/h 87% 0.25 mm
11:09 21.6 °C 19.3 °C 1011.1 hPa Calm   9.7 km/h 87% 0.25 mm
11:14 22.1 °C 19.2 °C 1010.7 hPa West 6.4 km/h 12.9 km/h 84% 0.25 mm
11:19 21.8 °C 18.8 °C 1010.7 hPa WNW 6.4 km/h 12.9 km/h 83% 0.25 mm
11:24 21.7 °C 19.1 °C 1010.7 hPa WNW 4.8 km/h 12.9 km/h 85% 0.25 mm
11:29 22 °C 19.2 °C 1010.7 hPa West 1.6 km/h 8 km/h 84% 0.25 mm
11:34 22 °C 19 °C 1010.7 hPa WNW 3.2 km/h 8 km/h 83% 0.25 mm
11:39 22.1 °C 19.1 °C 1010.7 hPa West 4.8 km/h 11.3 km/h 83% 0 mm
11:44 22.4 °C 19.2 °C 1010.7 hPa West 12.9 km/h 17.7 km/h 82% 0 mm
11:49 22.8 °C 19.2 °C 1010.7 hPa West 8 km/h 19.3 km/h 80% 0 mm
11:54 23.2 °C 19.1 °C 1010.7 hPa West 8 km/h 19.3 km/h 78% 0 mm
11:59 23 °C 19.2 °C 1010.7 hPa WNW 8 km/h 12.9 km/h 79% 0 mm
12:04 22.9 °C 19.1 °C 1010.7 hPa West 3.2 km/h 11.3 km/h 79% 0 mm
12:09 23.2 °C 18.9 °C 1010.4 hPa WNW 3.2 km/h 9.7 km/h 77% 0 mm
12:14 23.5 °C 19.2 °C 1010.7 hPa West 3.2 km/h 8 km/h 77% 0 mm
12:19 23.4 °C 18.5 °C 1010.7 hPa West 4.8 km/h 17.7 km/h 74% 0 mm
12:24 23.2 °C 17.6 °C 1010.7 hPa West 8 km/h 17.7 km/h 71% 0 mm
12:29 23.4 °C 17.7 °C 1010.7 hPa WNW 4.8 km/h 17.7 km/h 70% 0 mm
12:34 23.9 °C 18.1 °C 1010.7 hPa WSW 9.7 km/h 20.9 km/h 70% 0 mm
12:39 24.3 °C 17.3 °C 1010.7 hPa SW 14.5 km/h 20.9 km/h 65% 0 mm
12:44 24.1 °C 17.6 °C 1010.7 hPa WSW 11.3 km/h 22.5 km/h 67% 0 mm
12:49 23.9 °C 17.6 °C 1010.7 hPa WSW 9.7 km/h 19.3 km/h 68% 0 mm
12:54 24.2 °C 17.4 °C 1010.7 hPa WSW 11.3 km/h 22.5 km/h 66% 0 mm
12:59 24.1 °C 17.6 °C 1010.7 hPa WSW 12.9 km/h 22.5 km/h 67% 0 mm
13:04 24.2 °C 17.9 °C 1010.7 hPa WSW 11.3 km/h 20.9 km/h 68% 0 mm
13:09 24.1 °C 17.8 °C 1010.7 hPa WSW 11.3 km/h 22.5 km/h 68% 0 mm
13:14 24.2 °C 18.4 °C 1010.4 hPa West 6.4 km/h 17.7 km/h 70% 0 mm
13:19 24.3 °C 17.8 °C 1010.7 hPa SSW 11.3 km/h 24.1 km/h 67% 0 mm
13:24 24.4 °C 18.4 °C 1010.7 hPa WSW 11.3 km/h 24.1 km/h 69% 0 mm
13:29 24.4 °C 18.2 °C 1010.7 hPa WSW 9.7 km/h 19.3 km/h 68% 0 mm
13:34 24.8 °C 18.5 °C 1010.7 hPa SW 9.7 km/h 16.1 km/h 68% 0 mm
13:39 24.9 °C 18.6 °C 1010.7 hPa WSW 6.4 km/h 16.1 km/h 68% 0 mm
13:44 25 °C 18.4 °C 1010.7 hPa West 12.9 km/h 22.5 km/h 67% 0 mm
13:49 24.9 °C 18.6 °C 1010.4 hPa SW 4.8 km/h 22.5 km/h 68% 0 mm
13:54 24.9 °C 18.8 °C 1010.4 hPa WSW 9.7 km/h 22.5 km/h 69% 0 mm
13:59 25.3 °C 19.2 °C 1010.4 hPa WSW 9.7 km/h 16.1 km/h 69% 0 mm
14:04 25.1 °C 18.7 °C 1010.4 hPa WSW 9.7 km/h 20.9 km/h 68% 0 mm
14:09 24.8 °C 19 °C 1010.4 hPa SW 11.3 km/h 25.7 km/h 70% 0 mm
14:14 24.7 °C 19.3 °C 1010.4 hPa WSW 12.9 km/h 25.7 km/h 72% 0 mm
14:19 24.6 °C 18.7 °C 1010.7 hPa WSW 12.9 km/h 22.5 km/h 70% 0 mm
14:24 24.6 °C 18.7 °C 1010.7 hPa West 9.7 km/h 29 km/h 70% 0 mm
14:29 24.8 °C 18.9 °C 1010.7 hPa WSW 12.9 km/h 29 km/h 70% 0 mm
14:34 24.6 °C 18.3 °C 1010.4 hPa WSW 4.8 km/h 27.4 km/h 68% 0 mm
14:39 24.7 °C 17.9 °C 1010.7 hPa SW 16.1 km/h 27.4 km/h 66% 0 mm
14:44 24.4 °C 18.4 °C 1010.7 hPa SW 12.9 km/h 22.5 km/h 69% 0 mm
14:49 24.4 °C 17.7 °C 1010.7 hPa WSW 6.4 km/h 30.6 km/h 66% 0 mm
14:54 24.4 °C 17.9 °C 1010.7 hPa West 9.7 km/h 32.2 km/h 67% 0 mm
14:59 24.4 °C 17.7 °C 1010.7 hPa West 12.9 km/h 32.2 km/h 66% 0 mm
15:04 24.5 °C 18.2 °C 1010.7 hPa WSW 12.9 km/h 29 km/h 68% 0 mm
15:09 24.4 °C 18.3 °C 1010.4 hPa WSW 12.9 km/h 25.7 km/h 69% 0 mm
15:14 24.5 °C 18.7 °C 1010.4 hPa SW 19.3 km/h 24.1 km/h 70% 0 mm
15:19 24.6 °C 18.5 °C 1010.4 hPa WSW 12.9 km/h 24.1 km/h 69% 0 mm
15:24 24.6 °C 18.5 °C 1010.4 hPa West 17.7 km/h 24.1 km/h 69% 0 mm
15:29 24.2 °C 18.1 °C 1010.4 hPa WSW 12.9 km/h 25.7 km/h 69% 0 mm
15:34 24.2 °C 18.3 °C 1010.4 hPa WSW 14.5 km/h 30.6 km/h 70% 0 mm
15:39 24.2 °C 18.1 °C 1010.4 hPa WSW 12.9 km/h 32.2 km/h 69% 0 mm
15:44 24.3 °C 18.5 °C 1010.4 hPa WSW 14.5 km/h 32.2 km/h 70% 0 mm
15:49 24.4 °C 18.1 °C 1010.4 hPa WSW 12.9 km/h 29 km/h 68% 0 mm
15:54 24.2 °C 17.9 °C 1010.7 hPa WSW 14.5 km/h 29 km/h 68% 0 mm
15:59 24.1 °C 17.8 °C 1010.4 hPa WNW 9.7 km/h 30.6 km/h 68% 0 mm
16:04 24 °C 17.7 °C 1010.4 hPa WSW 11.3 km/h 29 km/h 68% 0 mm
16:09 24.1 °C 18.1 °C 1010.4 hPa SW 14.5 km/h 29 km/h 69% 0 mm
16:14 23.9 °C 17.6 °C 1010.4 hPa WSW 24.1 km/h 25.7 km/h 68% 0 mm
16:19 23.8 °C 18.1 °C 1010.4 hPa WSW 11.3 km/h 20.9 km/h 70% 0 mm
16:24 24.1 °C 18 °C 1010.7 hPa WNW 12.9 km/h 27.4 km/h 69% 0 mm
16:29 24 °C 17.5 °C 1010.4 hPa SW 12.9 km/h 27.4 km/h 67% 0 mm
16:34 24 °C 17.5 °C 1010.7 hPa WSW 12.9 km/h 27.4 km/h 67% 0 mm
16:39 23.8 °C 17.6 °C 1010.7 hPa SW 12.9 km/h 29 km/h 68% 0 mm
16:44 23.9 °C 17.6 °C 1010.7 hPa SW 12.9 km/h 29 km/h 68% 0 mm
16:49 23.8 °C 17.3 °C 1010.7 hPa WSW 12.9 km/h 30.6 km/h 67% 0 mm
16:54 23.9 °C 18.1 °C 1010.7 hPa WSW 12.9 km/h 30.6 km/h 70% 0 mm
16:59 23.6 °C 17.8 °C 1010.7 hPa WSW 11.3 km/h 29 km/h 70% 0 mm
17:04 23.7 °C 17.7 °C 1010.7 hPa WSW 11.3 km/h 29 km/h 69% 0 mm
17:09 23.3 °C 17.3 °C 1010.7 hPa SSW 11.3 km/h 27.4 km/h 69% 0 mm
17:14 23.1 °C 17.3 °C 1010.4 hPa WSW 8 km/h 33.8 km/h 70% 0 mm
17:19 23.2 °C 17.2 °C 1010.4 hPa WSW 27.4 km/h 27.4 km/h 69% 0 mm
17:24 23.2 °C 17.4 °C 1010.4 hPa SW 14.5 km/h 27.4 km/h 70% 0 mm
17:29 23.1 °C 17.3 °C 1010.7 hPa SW 12.9 km/h 25.7 km/h 70% 0 mm
17:34 23.1 °C 17.5 °C 1010.7 hPa SW 16.1 km/h 27.4 km/h 71% 0 mm
17:39 22.8 °C 17.1 °C 1010.7 hPa WSW 14.5 km/h 27.4 km/h 70% 0 mm
17:44 22.9 °C 17.6 °C 1010.7 hPa WSW 14.5 km/h 29 km/h 72% 0 mm
17:49 22.8 °C 17.7 °C 1010.7 hPa SW 12.9 km/h 29 km/h 73% 0 mm
17:54 22.6 °C 17.7 °C 1010.4 hPa SW 11.3 km/h 27.4 km/h 74% 0 mm
17:59 22.7 °C 18 °C 1010.7 hPa SW 20.9 km/h 25.7 km/h 75% 0 mm
18:04 22.3 °C 17.6 °C 1010.7 hPa West 12.9 km/h 32.2 km/h 75% 0 mm
18:09 22.1 °C 17.9 °C 1010.7 hPa WSW 12.9 km/h 32.2 km/h 77% 0 mm
18:14 22.2 °C 17.9 °C 1010.7 hPa WSW 9.7 km/h 20.9 km/h 77% 0 mm
18:19 22.1 °C 17.8 °C 1010.4 hPa WSW 9.7 km/h 20.9 km/h 77% 0 mm
18:24 21.9 °C 17.9 °C 1010.4 hPa WSW 11.3 km/h 19.3 km/h 78% 0 mm
18:29 21.9 °C 18.1 °C 1010.4 hPa West 9.7 km/h 29 km/h 79% 0 mm
18:34 21.9 °C 18.1 °C 1010.4 hPa West 9.7 km/h 25.7 km/h 79% 0 mm
18:39 21.8 °C 18.2 °C 1010.7 hPa West 9.7 km/h 24.1 km/h 80% 0 mm
18:44 21.4 °C 17.4 °C 1011.1 hPa West 11.3 km/h 25.7 km/h 78% 0.76 mm
18:49 19.8 °C 16.1 °C 1011.7 hPa WNW 14.5 km/h 33.8 km/h 79% 7.37 mm
18:54 18.2 °C 15.1 °C 1011.1 hPa Calm   20.9 km/h 82% 14.22 mm
18:59 17.7 °C 15.3 °C 1011.1 hPa WSW 8 km/h 14.5 km/h 86% 14.48 mm
19:04 18.2 °C 16.2 °C 1010.7 hPa SW 1.6 km/h 9.7 km/h 88% 14.99 mm
19:09 18.5 °C 16.5 °C 1011.1 hPa Calm   8 km/h 88% 14.99 mm
19:14 18.7 °C 16.6 °C 1011.1 hPa SW 3.2 km/h 8 km/h 88% 14.99 mm
19:19 18.9 °C 16.7 °C 1011.1 hPa SW 3.2 km/h 8 km/h 87% 15.24 mm
19:24 18.9 °C 16.9 °C 1011.1 hPa SW 3.2 km/h 3.2 km/h 88% 15.24 mm
19:29 19.1 °C 17.1 °C 1011.1 hPa SW 1.6 km/h 6.4 km/h 88% 15.24 mm
19:34 19.2 °C 17.1 °C 1011.4 hPa SW 1.6 km/h 8 km/h 88% 15.24 mm
19:39 19.1 °C 17.1 °C 1011.4 hPa Calm   6.4 km/h 88% 15.24 mm
19:44 19.1 °C 17.1 °C 1011.4 hPa SW 1.6 km/h 6.4 km/h 88% 14.48 mm
19:49 19.1 °C 17.1 °C 1011.4 hPa Calm   1.6 km/h 88% 7.87 mm
19:54 19.2 °C 17.2 °C 1011.4 hPa Calm     88% 1.02 mm
19:59 19.3 °C 17.2 °C 1011.4 hPa Calm     88% 0.76 mm
20:04 19.3 °C 17.3 °C 1011.4 hPa Calm     88% 0.25 mm
20:09 19.3 °C 17.3 °C 1011.4 hPa Calm     88% 0.25 mm
20:14 19.3 °C 17.3 °C 1011.4 hPa Calm     88% 0.25 mm
20:19 19.3 °C 17.3 °C 1011.4 hPa Calm     88% 0 mm
20:24 19.3 °C 17.4 °C 1011.1 hPa Calm     89% 0 mm
20:29 19.3 °C 17.5 °C 1011.4 hPa Calm     89% 0 mm
20:34 19.3 °C 17.7 °C 1011.4 hPa Calm     90% 0 mm
20:39 19.4 °C 17.7 °C 1011.4 hPa Calm     90% 0 mm
20:44 19.4 °C 17.8 °C 1011.4 hPa Calm     90% 0 mm
20:49 19.5 °C 17.8 °C 1011.4 hPa Calm   6.4 km/h 90% 0 mm
20:54 19.5 °C 17.8 °C 1011.7 hPa NE 1.6 km/h 6.4 km/h 90% 0 mm
20:59 19.4 °C 17.8 °C 1011.7 hPa Calm     90% 0 mm
21:04 19.5 °C 18 °C 1011.7 hPa Calm   8 km/h 91% 0.25 mm
21:09 19.6 °C 18.1 °C 1011.7 hPa Calm     91% 1.52 mm
21:14 19.7 °C 18.2 °C 1011.7 hPa Calm     91% 1.52 mm
21:19 19.7 °C 18.2 °C 1011.7 hPa Calm     91% 1.52 mm
21:24 19.7 °C 18.2 °C 1011.7 hPa Calm     91% 1.52 mm
21:29 19.7 °C 18.2 °C 1012.1 hPa Calm     91% 1.52 mm
21:34 19.7 °C 18.2 °C 1012.1 hPa Calm     91% 1.52 mm
21:39 19.8 °C 18.3 °C 1012.1 hPa Calm     91% 1.52 mm
21:44 19.8 °C 18.3 °C 1012.1 hPa Calm     91% 1.52 mm
21:49 19.7 °C 18.2 °C 1012.1 hPa Calm     91% 1.52 mm
21:54 19.6 °C 18.1 °C 1012.1 hPa Calm     91% 1.52 mm
21:59 19.6 °C 18.1 °C 1012.1 hPa Calm     91% 1.52 mm
22:04 19.6 °C 18.2 °C 1012.1 hPa Calm     92% 1.27 mm
22:09 19.6 °C 18.2 °C 1012.1 hPa Calm   3.2 km/h 92% 0 mm
22:14 19.6 °C 18.3 °C 1012.1 hPa Calm   4.8 km/h 92% 0 mm
22:19 19.7 °C 18.4 °C 1012.1 hPa Calm   1.6 km/h 92% 0 mm
22:24 19.7 °C 18.3 °C 1012.1 hPa Calm     92% 0 mm
22:29 19.6 °C 18.2 °C 1012.1 hPa Calm   4.8 km/h 92% 0 mm
22:34 19.5 °C 18.2 °C 1012.1 hPa Calm   4.8 km/h 92% 0 mm
22:39 19.3 °C 18 °C 1012.4 hPa Calm     92% 0 mm
22:44 19.2 °C 17.7 °C 1012.4 hPa Calm     91% 0 mm
22:49 19.2 °C 17.7 °C 1012.4 hPa Calm     91% 0 mm
22:54 19.1 °C 17.6 °C 1012.4 hPa Calm   8 km/h 91% 0 mm
22:59 19 °C 17.5 °C 1012.4 hPa NW 1.6 km/h 8 km/h 91% 0 mm
23:04 18.8 °C 17.3 °C 1012.8 hPa NW 1.6 km/h 6.4 km/h 91% 0 mm
23:09 18.6 °C 16.9 °C 1012.8 hPa WNW 1.6 km/h 8 km/h 90% 0 mm
23:14 18.6 °C 16.9 °C 1012.8 hPa WNW 1.6 km/h 8 km/h 90% 0 mm
23:24 18.3 °C 16.5 °C 1012.8 hPa Calm   3.2 km/h 89% 0 mm
23:29 18.3 °C 16.4 °C 1012.8 hPa Calm     89% 0 mm
23:34 18.3 °C 16.6 °C 1012.8 hPa Calm   4.8 km/h 90% 0 mm
23:39 18.2 °C 16.4 °C 1012.8 hPa Calm     89% 0 mm
23:44 18.2 °C 16.3 °C 1012.8 hPa Calm   4.8 km/h 89% 0 mm
23:49 18.1 °C 16.3 °C 1012.8 hPa Calm   4.8 km/h 89% 0 mm
23:54 18 °C 16.2 °C 1012.8 hPa Calm   4.8 km/h 89% 0 mm
23:59 17.9 °C 16.1 °C 1012.8 hPa Calm   8 km/h 89% 0 mm
Buffalo, New York, USA
Compliments of Weather Underground - 2.5 mb